Time;durP1;ratioP1;P1;durP2;ratioP2;P2;SDS_P1;SDS_P2;PMS_P1;PMS_P2;Temp;Humidity;BMP_temperature;BMP_pressure;BME280_temperature;BME280_humidity;BME280_pressure;Samples;Min_cycle;Max_cycle;Signal;HPM_P1;HPM_P2
2023/05/04 05:20:47;;;;;;;;;;;;;;;15.16;64.27;97194.75;4216228;27;10393;-83
2023/05/04 05:22:50;;;;;;;;;;;;;;;15.44;63.73;97195.25;4214905;28;5702;-84
2023/05/04 05:24:53;;;;;;;;;;;;;;;15.65;63.63;97194.13;4216874;28;5721;-82
2023/05/04 05:26:56;;;;;;;;;;;;;;;15.84;63.38;97205.66;4211613;28;5734;-83
2023/05/04 05:28:59;;;;;;;;;;;;;;;15.99;62.90;97200.03;4216693;28;5686;-83
2023/05/04 05:31:03;;;;;;;;;;;;;;;16.12;62.68;97201.78;4217533;28;5908;-82
2023/05/04 05:33:06;;;;;;;;;;;;;;;16.23;62.49;97201.88;4217019;28;5694;-82
2023/05/04 05:35:09;;;;;;;;;;;;;;;16.33;62.20;97203.22;4217083;28;5687;-82
2023/05/04 05:37:13;;;;;;;;;;;;;;;16.39;62.17;97213.00;4216981;28;7714;-83
2023/05/04 05:39:16;;;;;;;;;;;;;;;16.46;61.94;97222.59;4216483;28;5698;-81
2023/05/04 05:41:19;;;;;;;;;;;;;;;16.51;62.00;97228.06;4216465;28;5693;-81
2023/05/04 05:43:22;;;;;;;;;;;;;;;16.56;61.79;97219.44;4217442;28;5087;-83
2023/05/04 05:45:25;;;;;;;;;;;;;;;16.62;61.58;97220.38;4216823;28;5690;-82
2023/05/04 05:47:28;;;;;;;;;;;;;;;16.66;61.67;97218.91;4217018;28;5765;-83
2023/05/04 05:49:31;;;;;;;;;;;;;;;16.71;61.48;97211.09;4216871;28;5801;-83
2023/05/04 05:51:34;;;;;;;;;;;;;;;16.77;61.48;97213.69;4216260;28;5992;-83
2023/05/04 05:53:38;;;;;;;;;;;;;;;16.90;61.34;97210.06;4216223;28;5690;-82
2023/05/04 05:55:41;;;;;;;;;;;;;;;17.01;61.13;97217.31;4216123;28;5693;-82
2023/05/04 05:57:44;;;;;;;;;;;;;;;17.08;60.84;97210.03;4218909;28;5718;-82
2023/05/04 05:59:47;;;;;;;;;;;;;;;17.20;60.84;97212.75;4215722;28;5745;-83
2023/05/04 06:01:50;;;;;;;;;;;;;;;17.31;60.70;97216.53;4214879;28;5689;-83
2023/05/04 06:03:52;;;;;;;;;;;;;;;17.38;60.41;97211.94;4215854;28;5781;-82
2023/05/04 06:05:56;;;;;;;;;;;;;;;17.49;60.38;97218.38;4215920;28;5701;-83
2023/05/04 06:07:59;;;;;;;;;;;;;;;17.59;60.14;97210.63;4214703;28;5655;-82
2023/05/04 06:10:03;;;;;;;;;;;;;;;17.64;59.99;97210.75;4214950;28;5808;-82
2023/05/04 06:12:12;;;;;;;;;;;;;;;17.66;60.07;97212.13;4215573;28;5697;-81
2023/05/04 06:14:15;;;;;;;;;;;;;;;17.70;59.75;97210.69;4215244;28;5687;-82
2023/05/04 06:16:17;;;;;;;;;;;;;;;17.73;59.73;97214.75;4214874;28;5702;-82
2023/05/04 06:18:21;;;;;;;;;;;;;;;17.78;59.58;97212.25;4215007;28;6623;-81
2023/05/04 06:20:23;;;;;;;;;;;;;;;17.87;59.44;97215.38;4211279;28;7745;-81
2023/05/04 06:22:26;;;;;;;;;;;;;;;17.93;59.32;97211.81;4204030;28;5800;-81
2023/05/04 06:24:29;;;;;;;;;;;;;;;17.98;59.16;97212.72;4202657;28;5632;-81
2023/05/04 06:26:33;;;;;;;;;;;;;;;18.04;59.01;97211.00;4203754;28;5792;-81
2023/05/04 06:28:36;;;;;;;;;;;;;;;18.08;58.83;97211.34;4203755;28;6387;-82
2023/05/04 06:30:39;;;;;;;;;;;;;;;18.06;58.92;97208.09;4203359;28;6361;-82
2023/05/04 06:32:42;;;;;;;;;;;;;;;18.09;58.79;97213.78;4203246;28;5746;-82
2023/05/04 06:34:45;;;;;;;;;;;;;;;18.14;58.61;97213.13;4187209;28;5738;-81
2023/05/04 06:36:48;;;;;;;;;;;;;;;18.17;58.62;97209.97;4188018;28;5727;-81
2023/05/04 06:38:51;;;;;;;;;;;;;;;18.14;58.46;97205.09;4203828;28;5686;-82
2023/05/04 06:40:54;;;;;;;;;;;;;;;18.14;58.52;97205.09;4203327;28;5693;-82
2023/05/04 06:42:59;;;;;;;;;;;;;;;18.13;58.65;97198.13;4203777;28;5687;-81
2023/05/04 06:45:02;;;;;;;;;;;;;;;18.14;58.46;97199.75;4203813;28;6360;-82
2023/05/04 06:47:06;;;;;;;;;;;;;;;18.10;58.30;97195.88;4203899;28;5737;-82
2023/05/04 06:49:09;;;;;;;;;;;;;;;18.12;58.46;97208.00;4203654;28;5702;-82
2023/05/04 06:51:12;;;;;;;;;;;;;;;18.13;58.13;97198.94;4203402;28;5690;-82
2023/05/04 06:53:17;;;;;;;;;;;;;;;18.13;58.35;97198.13;4204089;28;5767;-82
2023/05/04 06:55:20;;;;;;;;;;;;;;;18.12;58.29;97196.44;4203168;28;5983;-81
2023/05/04 06:57:23;;;;;;;;;;;;;;;18.13;58.20;97198.94;4203535;28;6544;-81
2023/05/04 06:59:27;;;;;;;;;;;;;;;18.14;58.15;97202.41;4203718;28;5693;-82
2023/05/04 07:01:30;;;;;;;;;;;;;;;18.13;58.05;97209.63;4203480;28;5784;-81
2023/05/04 07:03:33;;;;;;;;;;;;;;;18.09;58.01;97204.94;4203294;28;5754;-81
2023/05/04 07:05:36;;;;;;;;;;;;;;;18.10;58.04;97206.56;4203142;28;5812;-81
2023/05/04 07:07:39;;;;;;;;;;;;;;;18.07;57.84;97204.38;4203473;28;5689;-81
2023/05/04 07:09:42;;;;;;;;;;;;;;;18.02;57.88;97197.88;4203408;28;5789;-82
2023/05/04 07:11:47;;;;;;;;;;;;;;;17.99;57.82;97209.00;4186600;28;5730;-82
2023/05/04 07:13:50;;;;;;;;;;;;;;;17.97;57.71;97200.41;4196588;28;5796;-81
2023/05/04 07:15:54;;;;;;;;;;;;;;;17.96;57.57;97198.78;4203708;28;5924;-81
2023/05/04 07:17:57;;;;;;;;;;;;;;;17.93;57.65;97193.06;4203572;28;5698;-82
2023/05/04 07:20:01;;;;;;;;;;;;;;;17.95;57.49;97199.00;4203063;28;5671;-82
2023/05/04 07:22:05;;;;;;;;;;;;;;;17.97;57.25;97199.59;4203596;28;5698;-82
2023/05/04 07:24:08;;;;;;;;;;;;;;;17.98;57.37;97195.88;4203442;28;5693;-82
2023/05/04 07:26:11;;;;;;;;;;;;;;;17.97;57.30;97197.72;4203239;28;5762;-83
2023/05/04 07:28:15;;;;;;;;;;;;;;;17.99;57.15;97198.31;4203330;28;5738;-82
2023/05/04 07:30:19;;;;;;;;;;;;;;;17.97;56.88;97194.22;4203365;28;6391;-82
2023/05/04 07:32:24;;;;;;;;;;;;;;;17.96;56.99;97196.09;4202428;28;5788;-82
2023/05/04 07:34:28;;;;;;;;;;;;;;;17.96;56.98;97197.97;4203246;28;5694;-82
2023/05/04 07:36:46;;;;;;;;;;;;;;;17.95;56.81;97190.97;4195067;28;5698;-82
2023/05/04 07:38:50;;;;;;;;;;;;;;;17.95;56.83;97193.66;4202955;28;5694;-82
2023/05/04 07:40:53;;;;;;;;;;;;;;;17.95;56.63;97189.13;4203164;28;5694;-82
2023/05/04 07:42:57;;;;;;;;;;;;;;;17.93;56.53;97188.53;4201562;28;5686;-82
2023/05/04 07:45:00;;;;;;;;;;;;;;;17.93;56.54;97195.75;4202629;28;5695;-82
2023/05/04 07:47:03;;;;;;;;;;;;;;;17.93;56.54;97190.41;4202897;28;5714;-82
2023/05/04 07:49:08;;;;;;;;;;;;;;;17.94;56.38;97187.50;4202927;28;5698;-81
2023/05/04 07:51:15;;;;;;;;;;;;;;;17.97;56.37;97197.72;4202750;28;5737;-81
2023/05/04 07:53:19;;;;;;;;;;;;;;;18.01;56.13;97190.06;4202892;28;5693;-82
2023/05/04 07:55:22;;;;;;;;;;;;;;;18.01;56.33;97177.50;4202367;28;5884;-81
2023/05/04 07:57:25;;;;;;;;;;;;;;;18.02;56.25;97192.50;4202783;28;5690;-82
2023/05/04 07:59:28;;;;;;;;;;;;;;;18.04;56.32;97179.72;4202633;28;5949;-82
2023/05/04 08:01:31;;;;;;;;;;;;;;;18.05;56.11;97183.22;4202649;28;7124;-82
2023/05/04 08:03:34;;;;;;;;;;;;;;;18.04;56.02;97185.06;4203069;28;5682;-82
2023/05/04 08:05:38;;;;;;;;;;;;;;;18.01;55.80;97192.75;4202872;28;5778;-81
2023/05/04 08:07:41;;;;;;;;;;;;;;;17.97;55.96;97195.03;4202374;28;5681;-82
2023/05/04 08:09:44;;;;;;;;;;;;;;;17.97;56.00;97195.03;4185631;28;7713;-82
2023/05/04 08:11:47;;;;;;;;;;;;;;;18.00;55.78;97194.56;4185684;28;6485;-82
2023/05/04 08:13:51;;;;;;;;;;;;;;;18.01;55.81;97190.06;4186091;28;5731;-82
2023/05/04 08:15:53;;;;;;;;;;;;;;;18.00;55.89;97199.94;4185812;28;5708;-81
2023/05/04 08:17:56;;;;;;;;;;;;;;;18.02;55.77;97184.50;4185910;28;5712;-82
2023/05/04 08:19:59;;;;;;;;;;;;;;;18.03;55.68;97185.31;4195768;28;5694;-82
2023/05/04 08:22:04;;;;;;;;;;;;;;;18.03;55.60;97186.13;4202149;28;5908;-84
2023/05/04 08:24:07;;;;;;;;;;;;;;;18.04;55.61;97187.75;4202140;28;5690;-83
2023/05/04 08:26:10;;;;;;;;;;;;;;;18.04;55.67;97195.78;4201988;28;5705;-82
2023/05/04 08:28:13;;;;;;;;;;;;;;;18.07;55.61;97201.69;4202556;28;5769;-83
2023/05/04 08:30:16;;;;;;;;;;;;;;;18.04;55.67;97195.78;4202248;28;5765;-83
2023/05/04 08:32:19;;;;;;;;;;;;;;;18.06;55.52;97206.22;4202287;28;5793;-82
2023/05/04 08:34:22;;;;;;;;;;;;;;;18.08;55.47;97188.09;4202399;28;5720;-83
2023/05/04 08:36:26;;;;;;;;;;;;;;;18.08;55.47;97190.75;4202580;28;5751;-83
2023/05/04 08:38:30;;;;;;;;;;;;;;;18.06;55.63;97187.50;4202226;28;5812;-82
2023/05/04 08:40:34;;;;;;;;;;;;;;;18.06;55.48;97187.50;4201715;28;5683;-82
2023/05/04 08:42:36;;;;;;;;;;;;;;;18.03;55.44;97193.31;4202481;28;5784;-82
2023/05/04 08:44:40;;;;;;;;;;;;;;;18.05;55.40;97191.22;4201766;28;5811;-83
2023/05/04 08:46:51;;;;;;;;;;;;;;;18.09;55.39;97194.25;4185642;28;6521;-83
2023/05/04 08:48:54;;;;;;;;;;;;;;;18.11;55.22;97184.94;4195687;28;5693;-82
2023/05/04 08:50:58;;;;;;;;;;;;;;;18.11;55.23;97186.81;4201604;28;5793;-82
2023/05/04 08:53:02;;;;;;;;;;;;;;;18.13;55.22;97182.06;4201805;28;5725;-83
2023/05/04 08:55:11;;;;;;;;;;;;;;;18.14;55.26;97186.38;4201746;28;5805;-82
2023/05/04 08:57:18;;;;;;;;;;;;;;;18.15;55.05;97191.47;4201460;28;5827;-83
2023/05/04 08:59:22;;;;;;;;;;;;;;;18.17;55.08;97189.38;4201692;28;5784;-82
2023/05/04 09:01:25;;;;;;;;;;;;;;;18.18;55.07;97182.97;4201945;28;5694;-82
2023/05/04 09:03:30;;;;;;;;;;;;;;;18.20;54.97;97188.09;4201901;28;5690;-82
2023/05/04 09:05:34;;;;;;;;;;;;;;;18.19;54.88;97181.94;4201751;28;5863;-82
2023/05/04 09:07:37;;;;;;;;;;;;;;;18.22;54.82;97181.47;4201634;28;5793;-82
2023/05/04 09:09:40;;;;;;;;;;;;;;;18.23;54.82;97182.28;4202154;28;5702;-82
2023/05/04 09:11:45;;;;;;;;;;;;;;;18.21;54.84;97189.72;4193207;28;5691;-82
2023/05/04 09:13:49;;;;;;;;;;;;;;;18.19;54.86;97186.47;4202002;28;5694;-83
2023/05/04 09:16:00;;;;;;;;;;;;;;;18.16;54.75;97187.75;4201902;28;5721;-82
2023/05/04 09:18:05;;;;;;;;;;;;;;;18.19;54.44;97179.25;4201847;28;5686;-82
2023/05/04 09:20:09;;;;;;;;;;;;;;;18.20;54.54;97182.75;4201596;28;5686;-82
2023/05/04 09:22:16;;;;;;;;;;;;;;;18.20;54.61;97180.06;4201682;28;5789;-82
2023/05/04 09:24:27;;;;;;;;;;;;;;;18.21;54.56;97179.03;4202022;28;5690;-82
2023/05/04 09:26:31;;;;;;;;;;;;;;;18.20;54.55;97178.22;4201513;28;5698;-82
2023/05/04 09:28:38;;;;;;;;;;;;;;;18.21;54.53;97179.03;4201593;28;5884;-82
2023/05/04 09:30:41;;;;;;;;;;;;;;;18.24;54.50;97181.25;4201395;28;5690;-82
2023/05/04 09:32:48;;;;;;;;;;;;;;;18.24;54.33;97178.56;4184110;28;5755;-83
2023/05/04 09:34:54;;;;;;;;;;;;;;;18.26;54.56;97181.84;4201572;28;5749;-83
2023/05/04 09:36:59;;;;;;;;;;;;;;;18.27;54.23;97170.06;4201770;28;5766;-82
2023/05/04 09:39:10;;;;;;;;;;;;;;;18.28;54.21;97179.72;4202533;28;5789;-82
2023/05/04 09:41:13;;;;;;;;;;;;;;;18.32;54.10;97178.22;4202730;28;5695;-82
2023/05/04 09:43:16;;;;;;;;;;;;;;;18.34;53.95;97176.09;4203006;28;5698;-80
2023/05/04 09:45:21;;;;;;;;;;;;;;;18.35;54.06;97183.13;4201619;28;5809;-80
2023/05/04 09:47:30;;;;;;;;;;;;;;;18.38;53.80;97174.63;4201522;28;5694;-81
2023/05/04 09:49:35;;;;;;;;;;;;;;;18.41;53.78;97173.31;4201677;28;5821;-81
2023/05/04 09:51:38;;;;;;;;;;;;;;;18.42;53.72;97174.94;4201797;28;5695;-81
2023/05/04 09:53:42;;;;;;;;;;;;;;;18.44;53.66;97178.22;4201569;28;5713;-82
2023/05/04 09:55:47;;;;;;;;;;;;;;;18.42;53.59;97169.59;4202605;28;5697;-82
2023/05/04 09:57:50;;;;;;;;;;;;;;;18.41;53.63;97173.31;4204814;28;5698;-81
2023/05/04 09:59:55;;;;;;;;;;;;;;;18.41;53.54;97174.13;4204279;28;5863;-81
2023/05/04 10:02:00;;;;;;;;;;;;;;;18.44;53.69;97176.34;4204858;28;5693;-82
2023/05/04 10:04:16;;;;;;;;;;;;;;;18.48;53.28;97172.16;4204640;28;5694;-81
2023/05/04 10:06:20;;;;;;;;;;;;;;;18.49;53.17;97178.34;4204298;28;5710;-81
2023/05/04 10:08:23;;;;;;;;;;;;;;;18.49;53.37;97172.97;4204380;28;5682;-81
2023/05/04 10:10:27;;;;;;;;;;;;;;;18.51;53.13;97174.38;4203976;28;5844;-81
2023/05/04 10:12:30;;;;;;;;;;;;;;;18.52;53.10;97169.81;4204342;28;5697;-82
2023/05/04 10:14:34;;;;;;;;;;;;;;;18.55;53.13;97169.34;4204542;28;5714;-81
2023/05/04 10:16:44;;;;;;;;;;;;;;;18.57;52.91;97162.75;4202721;28;5789;-81
2023/05/04 10:19:08;;;;;;;;;;;;;;;18.60;52.85;97156.91;4203853;28;5693;-81
2023/05/04 10:21:25;;;;;;;;;;;;;;;18.63;52.78;97169.81;4204695;28;5702;-83
2023/05/04 10:23:46;;;;;;;;;;;;;;;18.64;52.91;97162.63;4204189;28;5689;-82
2023/05/04 10:26:04;;;;;;;;;;;;;;;18.63;52.78;97159.09;4203614;28;5697;-83
2023/05/04 10:28:27;;;;;;;;;;;;;;;18.65;52.59;97158.09;4204026;28;5705;-83
2023/05/04 10:30:30;;;;;;;;;;;;;;;18.69;52.47;97156.56;4204050;28;5699;-81
2023/05/04 10:32:38;;;;;;;;;;;;;;;18.71;52.57;97151.81;4203920;28;5802;-81
2023/05/04 10:34:44;;;;;;;;;;;;;;;18.70;52.29;97153.66;4204109;28;6071;-82
2023/05/04 10:36:47;;;;;;;;;;;;;;;18.71;52.23;97151.81;4203925;28;7858;-82
2023/05/04 10:38:50;;;;;;;;;;;;;;;18.73;52.25;97147.81;4203730;28;5792;-82
2023/05/04 10:40:53;;;;;;;;;;;;;;;18.76;52.04;97149.22;4203687;28;6372;-82
2023/05/04 10:42:56;;;;;;;;;;;;;;;18.79;51.99;97144.19;4203899;28;5694;-82
2023/05/04 10:44:59;;;;;;;;;;;;;;;18.83;51.89;97139.19;4203806;28;5066;-82
2023/05/04 10:47:05;;;;;;;;;;;;;;;18.87;51.83;97140.34;4203831;28;5924;-82
2023/05/04 10:49:16;;;;;;;;;;;;;;;18.91;51.79;97146.84;4203689;28;5731;-82
2023/05/04 10:51:22;;;;;;;;;;;;;;;18.96;51.77;97133.56;4203674;28;5698;-82
2023/05/04 10:53:32;;;;;;;;;;;;;;;18.98;51.76;97131.44;4203337;28;5679;-82
2023/05/04 10:55:40;;;;;;;;;;;;;;;19.00;51.73;97129.34;4203943;28;5850;-82
2023/05/04 10:57:48;;;;;;;;;;;;;;;19.03;51.72;97133.44;4195394;28;5698;-82
2023/05/04 10:59:55;;;;;;;;;;;;;;;19.04;51.50;97129.69;4203488;28;5698;-82
2023/05/04 11:01:59;;;;;;;;;;;;;;;19.05;51.77;97126.78;4203664;28;5709;-82
2023/05/04 11:04:02;;;;;;;;;;;;;;;19.09;51.49;97122.56;4203047;28;5082;-83
2023/05/04 11:06:15;;;;;;;;;;;;;;;19.12;51.76;97119.41;4203994;28;5687;-83
2023/05/04 11:08:21;;;;;;;;;;;;;;;19.17;51.40;97111.47;4203500;28;5694;-82
2023/05/04 11:10:26;;;;;;;;;;;;;;;19.22;51.36;97104.56;4202798;28;5713;-82
2023/05/04 11:12:29;;;;;;;;;;;;;;;19.27;51.33;97107.34;4205898;28;5079;-80
2023/05/04 11:14:36;;;;;;;;;;;;;;;19.30;51.08;97106.88;4205388;28;5804;-81
2023/05/04 11:16:39;;;;;;;;;;;;;;;19.33;51.06;97098.31;4204936;28;5718;-80
2023/05/04 11:18:42;;;;;;;;;;;;;;;19.36;51.14;97104.00;4204412;28;6387;-80
2023/05/04 11:20:45;;;;;;;;;;;;;;;19.38;51.25;97098.44;4188158;28;5735;-80
2023/05/04 11:22:48;;;;;;;;;;;;;;;19.41;50.94;97103.31;4187862;28;5786;-82
2023/05/04 11:24:53;;;;;;;;;;;;;;;19.45;51.19;97099.88;4203235;28;5689;-82
2023/05/04 11:26:58;;;;;;;;;;;;;;;19.49;51.11;97089.50;4203207;28;5800;-82
2023/05/04 11:29:00;;;;;;;;;;;;;;;19.53;50.98;97090.66;4202897;28;6391;-82
2023/05/04 11:31:13;;;;;;;;;;;;;;;19.52;50.72;97078.28;4203207;28;5698;-82
2023/05/04 11:33:16;;;;;;;;;;;;;;;19.55;50.74;97077.84;4202724;28;5701;-82
2023/05/04 11:35:21;;;;;;;;;;;;;;;19.58;50.50;97077.34;4203035;28;5721;-82
2023/05/04 11:37:26;;;;;;;;;;;;;;;19.59;50.88;97078.16;4203046;28;5086;-82
2023/05/04 11:39:32;;;;;;;;;;;;;;;19.62;50.68;97075.00;4202670;28;5786;-83
2023/05/04 11:41:37;;;;;;;;;;;;;;;19.63;50.52;97069.41;4201495;28;5698;-83
2023/05/04 11:43:42;;;;;;;;;;;;;;;19.67;50.48;97075.06;4189989;28;5924;-82
2023/05/04 11:45:48;;;;;;;;;;;;;;;19.69;50.67;97068.41;4202295;28;6384;-82
2023/05/04 11:47:52;;;;;;;;;;;;;;;19.73;50.30;97072.25;4203044;28;5844;-82
2023/05/04 11:49:55;;;;;;;;;;;;;;;19.74;50.55;97081.91;4201230;28;5686;-82
2023/05/04 11:52:05;;;;;;;;;;;;;;;19.75;50.25;97077.34;4195335;28;5897;-82
2023/05/04 11:54:19;;;;;;;;;;;;;;;19.76;50.34;97074.44;4201566;28;5686;-82
2023/05/04 11:56:23;;;;;;;;;;;;;;;19.80;50.17;97080.09;4195842;28;5798;-82
2023/05/04 11:58:27;;;;;;;;;;;;;;;19.83;50.12;97078.81;4199901;28;5690;-82
2023/05/04 12:00:38;;;;;;;;;;;;;;;19.84;50.06;97069.72;4200173;28;5686;-82
2023/05/04 12:02:43;;;;;;;;;;;;;;;19.83;50.11;97065.41;4200950;28;5805;-82
2023/05/04 12:04:47;;;;;;;;;;;;;;;19.83;49.96;97060.84;4193476;28;5903;-83
2023/05/04 12:06:50;;;;;;;;;;;;;;;19.85;50.14;97064.09;4198372;28;5758;-82
2023/05/04 12:09:02;;;;;;;;;;;;;;;19.87;50.24;97061.97;4201251;28;6972;-82
2023/05/04 12:11:12;;;;;;;;;;;;;;;19.89;49.98;97061.72;4195633;28;5702;-83
2023/05/04 12:13:16;;;;;;;;;;;;;;;19.87;50.21;97053.13;4194324;28;5948;-82
2023/05/04 12:15:30;;;;;;;;;;;;;;;19.89;50.26;97057.19;4199128;28;5741;-82
2023/05/04 12:17:40;;;;;;;;;;;;;;;19.92;50.26;97045.13;4199547;28;6375;-82
2023/05/04 12:19:54;;;;;;;;;;;;;;;19.94;49.95;97043.03;4195392;28;5173;-83
2023/05/04 12:21:57;;;;;;;;;;;;;;;19.97;50.38;97040.66;4199325;28;5801;-82
2023/05/04 12:24:01;;;;;;;;;;;;;;;19.98;50.03;97044.97;4201611;28;5690;-82
2023/05/04 12:26:04;;;;;;;;;;;;;;;20.00;50.11;97042.03;4189348;28;5694;-83
2023/05/04 12:28:08;;;;;;;;;;;;;;;20.03;49.82;97041.53;4197801;28;5698;-82
2023/05/04 12:30:12;;;;;;;;;;;;;;;20.06;49.97;97033.00;4198995;28;5719;-82
2023/05/04 12:32:16;;;;;;;;;;;;;;;20.10;49.99;97033.31;4193695;28;5709;-83
2023/05/04 12:34:19;;;;;;;;;;;;;;;20.13;49.79;97025.56;4197540;28;5682;-82
2023/05/04 12:36:23;;;;;;;;;;;;;;;20.17;49.76;97024.03;4193246;28;5209;-82
2023/05/04 12:38:26;;;;;;;;;;;;;;;20.19;49.97;97029.97;4196252;28;5690;-82
2023/05/04 12:40:29;;;;;;;;;;;;;;;20.21;50.10;97021.66;4198002;28;5778;-82
2023/05/04 12:42:32;;;;;;;;;;;;;;;20.23;49.89;97027.59;4193169;28;5801;-82
2023/05/04 12:44:35;;;;;;;;;;;;;;;20.23;49.68;97014.97;4195946;28;5913;-77
2023/05/04 12:46:37;;;;;;;;;;;;;;;20.25;49.78;97017.41;4199767;28;5909;-78
2023/05/04 12:48:43;;;;;;;;;;;;;;;20.26;49.65;97005.59;4199909;28;5781;-76
2023/05/04 12:50:47;;;;;;;;;;;;;;;20.29;49.59;97005.13;4199948;28;5702;-78
2023/05/04 12:52:50;;;;;;;;;;;;;;;20.34;49.30;97008.69;4200551;28;5698;-77
2023/05/04 12:54:55;;;;;;;;;;;;;;;20.40;49.39;97006.88;4196880;28;5785;-81
2023/05/04 12:56:58;;;;;;;;;;;;;;;20.43;49.08;96997.53;4200670;28;7885;-79
2023/05/04 12:59:01;;;;;;;;;;;;;;;20.43;49.01;97005.59;4203470;28;5738;-78
2023/05/04 13:01:04;;;;;;;;;;;;;;;20.41;49.30;96994.25;4200615;28;5953;-77
2023/05/04 13:03:07;;;;;;;;;;;;;;;20.42;49.07;97001.25;4201223;28;7743;-83
2023/05/04 13:05:11;;;;;;;;;;;;;;;20.45;49.16;97001.59;4201510;28;5749;-83
2023/05/04 13:07:14;;;;;;;;;;;;;;;20.48;49.20;96993.03;4205294;28;5817;-82
2023/05/04 13:09:19;;;;;;;;;;;;;;;20.54;49.10;96993.91;4204623;28;5857;-79
2023/05/04 13:11:23;;;;;;;;;;;;;;;20.57;48.72;97002.25;4204535;28;5825;-78
2023/05/04 13:13:28;;;;;;;;;;;;;;;20.61;48.83;96989.13;4203496;28;5750;-76
2023/05/04 13:15:31;;;;;;;;;;;;;;;20.63;48.60;96990.53;4206931;28;5742;-82
2023/05/04 13:17:35;;;;;;;;;;;;;;;20.63;48.56;96992.41;4205358;28;5799;-80
2023/05/04 13:19:38;;;;;;;;;;;;;;;20.61;48.80;96989.13;4204543;28;5845;-78
2023/05/04 13:21:43;;;;;;;;;;;;;;;20.60;48.71;96987.50;4203928;28;5881;-77
2023/05/04 13:23:46;;;;;;;;;;;;;;;20.60;48.29;96982.13;4203762;28;5852;-78
2023/05/04 13:25:49;;;;;;;;;;;;;;;20.59;48.63;96977.84;4204580;28;5690;-79
2023/05/04 13:27:53;;;;;;;;;;;;;;;20.59;48.33;96977.84;4203375;28;5820;-75
2023/05/04 13:30:00;;;;;;;;;;;;;;;20.63;48.36;96977.09;4203536;28;6396;-77
2023/05/04 13:32:02;;;;;;;;;;;;;;;20.67;48.33;96972.03;4203088;28;5904;-73
2023/05/04 13:34:06;;;;;;;;;;;;;;;20.68;47.97;96964.78;4203153;28;6765;-72
2023/05/04 13:36:09;;;;;;;;;;;;;;;20.69;47.95;96963.69;4204452;28;5784;-73
2023/05/04 13:38:14;;;;;;;;;;;;;;;20.71;47.89;96957.00;4203162;28;5796;-72
2023/05/04 13:40:17;;;;;;;;;;;;;;;20.73;47.90;96967.53;4202099;28;5783;-73
2023/05/04 13:42:20;;;;;;;;;;;;;;;20.72;47.99;96969.38;4204324;28;5686;-72
2023/05/04 13:44:23;;;;;;;;;;;;;;;20.74;47.96;96953.84;4205627;28;5785;-72
2023/05/04 13:46:26;;;;;;;;;;;;;;;20.77;47.85;96950.63;4205918;28;5687;-73
2023/05/04 13:48:31;;;;;;;;;;;;;;;20.81;47.56;96953.63;4205662;28;5706;-74
2023/05/04 13:50:34;;;;;;;;;;;;;;;20.83;47.67;96944.22;4206876;28;5158;-75
2023/05/04 13:52:37;;;;;;;;;;;;;;;20.85;47.50;96939.44;4207336;28;5785;-79
2023/05/04 13:54:41;;;;;;;;;;;;;;;20.86;47.79;96938.38;4207446;28;5682;-73
2023/05/04 13:56:47;;;;;;;;;;;;;;;20.96;47.69;96936.84;4203109;28;5793;-74
2023/05/04 13:58:52;;;;;;;;;;;;;;;20.97;47.79;96933.09;4205446;28;5710;-75
2023/05/04 14:00:56;;;;;;;;;;;;;;;20.99;47.64;96929.06;4203496;28;5682;-73
2023/05/04 14:02:59;;;;;;;;;;;;;;;21.02;47.67;96928.56;4204466;28;5687;-75
2023/05/04 14:05:03;;;;;;;;;;;;;;;21.08;47.76;96930.22;4202678;28;5926;-74
2023/05/04 14:07:07;;;;;;;;;;;;;;;21.06;47.65;96929.66;4202424;28;5721;-74
2023/05/04 14:09:10;;;;;;;;;;;;;;;21.07;47.69;96928.59;4201571;28;5690;-76
2023/05/04 14:11:14;;;;;;;;;;;;;;;21.08;47.59;96927.53;4201748;28;5721;-74
2023/05/04 14:13:17;;;;;;;;;;;;;;;21.12;47.61;96925.13;4201619;28;5699;-78
2023/05/04 14:15:21;;;;;;;;;;;;;;;21.13;47.55;96921.38;4201583;28;5694;-75
2023/05/04 14:17:24;;;;;;;;;;;;;;;21.10;47.71;96911.97;4201743;28;5807;-74
2023/05/04 14:19:27;;;;;;;;;;;;;;;21.14;47.78;96906.88;4201934;28;5702;-75
2023/05/04 14:21:30;;;;;;;;;;;;;;;21.19;47.46;96906.94;4201714;28;6489;-78
2023/05/04 14:23:33;;;;;;;;;;;;;;;21.24;47.37;96917.69;4202295;28;5693;-80
2023/05/04 14:25:36;;;;;;;;;;;;;;;21.23;47.38;96913.41;4203315;28;5722;-81
2023/05/04 14:27:41;;;;;;;;;;;;;;;21.25;47.37;96905.88;4203990;28;5698;-81
2023/05/04 14:29:44;;;;;;;;;;;;;;;21.26;47.46;96904.84;4204144;28;5709;-83
2023/05/04 14:31:49;;;;;;;;;;;;;;;21.29;47.17;96907.00;4203639;28;5710;-79
2023/05/04 14:33:52;;;;;;;;;;;;;;;21.29;47.29;96898.94;4204405;28;5918;-79
2023/05/04 14:35:58;;;;;;;;;;;;;;;21.25;47.23;96899.69;4202549;28;5904;-77
2023/05/04 14:38:01;;;;;;;;;;;;;;;21.25;47.12;96897.00;4202073;28;5082;-78
2023/05/04 14:40:05;;;;;;;;;;;;;;;21.29;47.11;96896.25;4201436;28;5690;-77
2023/05/04 14:42:08;;;;;;;;;;;;;;;21.31;47.27;96899.50;4201409;28;5777;-80
2023/05/04 14:44:12;;;;;;;;;;;;;;;21.33;46.80;96902.75;4197133;28;5873;-84
2023/05/04 14:46:15;;;;;;;;;;;;;;;21.40;46.83;96892.56;4208514;28;5781;-78
2023/05/04 14:48:21;;;;;;;;;;;;;;;21.44;46.88;96901.75;4202084;28;5796;-74
2023/05/04 14:50:24;;;;;;;;;;;;;;;21.50;46.48;96894.50;4200899;28;5661;-75
2023/05/04 14:52:27;;;;;;;;;;;;;;;21.51;46.66;96894.25;4198676;28;5723;-78
2023/05/04 14:54:30;;;;;;;;;;;;;;;21.50;46.81;96891.81;4204701;28;5755;-83
2023/05/04 14:56:33;;;;;;;;;;;;;;;21.52;46.46;96897.75;4204486;28;6652;-73
2023/05/04 14:58:36;;;;;;;;;;;;;;;21.54;46.62;96894.81;4201846;28;5851;-78
2023/05/04 15:00:41;;;;;;;;;;;;;;;21.57;46.27;96888.91;4202833;28;5087;-82
2023/05/04 15:02:44;;;;;;;;;;;;;;;21.60;46.11;96888.38;4200162;28;5701;-75
2023/05/04 15:04:47;;;;;;;;;;;;;;;21.61;46.07;96881.91;4199470;28;6136;-79
2023/05/04 15:06:51;;;;;;;;;;;;;;;21.65;46.02;96880.34;4198794;28;5819;-79
2023/05/04 15:08:54;;;;;;;;;;;;;;;21.62;45.78;96891.59;4201008;28;5758;-79
2023/05/04 15:10:57;;;;;;;;;;;;;;;21.60;45.98;96881.09;4203353;28;5685;-79
2023/05/04 15:13:00;;;;;;;;;;;;;;;21.63;45.85;96886.00;4203671;28;5836;-79
2023/05/04 15:15:04;;;;;;;;;;;;;;;21.58;46.06;96885.13;4202319;28;5862;-80
2023/05/04 15:17:08;;;;;;;;;;;;;;;21.55;45.80;96885.66;4203282;28;5900;-80
2023/05/04 15:19:11;;;;;;;;;;;;;;;21.58;45.77;96885.94;4203845;28;5784;-81
2023/05/04 15:21:19;;;;;;;;;;;;;;;21.59;45.92;96882.19;4201887;28;5817;-81
2023/05/04 15:23:22;;;;;;;;;;;;;;;21.63;45.67;96882.47;4201807;28;5826;-80
2023/05/04 15:25:26;;;;;;;;;;;;;;;21.65;45.91;96875.78;4206061;28;5698;-77
2023/05/04 15:27:29;;;;;;;;;;;;;;;21.65;45.71;96881.16;4200571;28;5804;-80
2023/05/04 15:29:32;;;;;;;;;;;;;;;21.68;45.85;96882.50;4201337;28;5902;-80
2023/05/04 15:31:34;;;;;;;;;;;;;;;21.68;45.52;96885.19;4201169;28;5789;-80
2023/05/04 15:33:39;;;;;;;;;;;;;;;21.69;45.80;96878.75;4192518;28;5825;-80
2023/05/04 15:35:42;;;;;;;;;;;;;;;21.63;45.40;96879.78;4197576;28;5126;-79
2023/05/04 15:37:45;;;;;;;;;;;;;;;21.58;45.71;96877.06;4189635;28;6558;-80
2023/05/04 15:39:47;;;;;;;;;;;;;;;21.65;45.24;96874.97;4192621;28;5882;-78
2023/05/04 15:41:50;;;;;;;;;;;;;;;21.67;45.42;96879.00;4184200;28;5806;-80
2023/05/04 15:43:54;;;;;;;;;;;;;;;21.66;45.71;96873.91;4195535;28;5832;-80
2023/05/04 15:45:57;;;;;;;;;;;;;;;21.71;45.25;96880.09;4200964;28;5706;-77
2023/05/04 15:47:59;;;;;;;;;;;;;;;21.74;45.23;96878.75;4205720;28;5672;-76
2023/05/04 15:50:04;;;;;;;;;;;;;;;21.73;45.33;96877.13;4204524;28;5928;-75
2023/05/04 15:52:09;;;;;;;;;;;;;;;21.70;45.03;96875.78;4195862;28;5679;-72
2023/05/04 15:54:12;;;;;;;;;;;;;;;21.65;45.23;96873.09;4199315;28;5780;-73
2023/05/04 15:56:15;;;;;;;;;;;;;;;21.66;45.21;96880.09;4196765;28;5899;-74
2023/05/04 15:58:18;;;;;;;;;;;;;;;21.71;45.06;96873.91;4200414;28;8452;-78
2023/05/04 16:00:21;;;;;;;;;;;;;;;21.67;44.80;96872.81;4200080;28;5781;-73
2023/05/04 16:02:26;;;;;;;;;;;;;;;21.68;44.58;96874.44;4200665;28;5869;-72
2023/05/04 16:04:29;;;;;;;;;;;;;;;21.70;44.49;96870.41;4200746;28;5785;-73
2023/05/04 16:06:33;;;;;;;;;;;;;;;21.67;44.68;96872.81;4201063;28;5784;-74
2023/05/04 16:08:36;;;;;;;;;;;;;;;21.61;44.70;96880.03;4195402;28;5797;-73
2023/05/04 16:10:39;;;;;;;;;;;;;;;21.55;44.41;96880.28;4189917;28;5790;-76
2023/05/04 16:12:42;;;;;;;;;;;;;;;21.53;44.80;96875.19;4199533;28;5706;-75
2023/05/04 16:14:45;;;;;;;;;;;;;;;21.56;44.59;96879.22;4188991;28;6486;-76
2023/05/04 16:16:48;;;;;;;;;;;;;;;21.57;44.39;96880.84;4199296;28;5860;-71